createdAt,value
2019-03-21T00:00:22.797Z,7.17
2019-03-21T00:02:54.286Z,7.18
2019-03-21T00:05:25.599Z,7.25
2019-03-21T00:07:56.822Z,7.26
2019-03-21T00:10:53.572Z,7.23
2019-03-21T00:13:24.593Z,7.14
2019-03-21T00:15:58.532Z,7.14
2019-03-21T00:18:30.619Z,6.47
2019-03-21T00:21:01.777Z,6.95
2019-03-21T00:23:32.665Z,7.03
2019-03-21T00:26:05.205Z,7.05
2019-03-21T00:28:37.540Z,7.03
2019-03-21T00:31:08.299Z,7.04
2019-03-21T00:33:39.536Z,6.99
2019-03-21T00:36:11.986Z,6.94
2019-03-21T00:38:42.851Z,6.88
2019-03-21T00:41:14.357Z,6.89
2019-03-21T00:43:45.271Z,6.91
2019-03-21T00:46:16.396Z,6.84
2019-03-21T00:48:47.544Z,6.70
2019-03-21T00:51:18.488Z,6.01
2019-03-21T00:53:49.710Z,6.72
2019-03-21T00:56:20.503Z,6.67
2019-03-21T00:58:51.811Z,6.61
2019-03-21T01:01:22.985Z,6.62
2019-03-21T01:03:56.751Z,6.55
2019-03-21T01:06:27.692Z,6.51
2019-03-21T01:08:58.631Z,6.54
2019-03-21T01:11:30.675Z,6.53
2019-03-21T01:14:01.745Z,6.40
2019-03-21T01:16:32.512Z,6.40
2019-03-21T01:19:03.176Z,6.30
2019-03-21T01:21:33.896Z,6.27
2019-03-21T01:24:04.759Z,6.02
2019-03-21T01:26:35.856Z,5.99
2019-03-21T01:29:06.794Z,6.00
2019-03-21T01:31:38.072Z,5.96
2019-03-21T01:34:09.129Z,6.05
2019-03-21T01:36:40.047Z,6.12
2019-03-21T01:39:10.821Z,6.14
2019-03-21T01:41:41.659Z,6.15
2019-03-21T01:44:14.484Z,6.11
2019-03-21T01:46:46.374Z,6.04
2019-03-21T01:49:18.068Z,6.02
2019-03-21T01:51:49.523Z,5.98
2019-03-21T01:54:20.236Z,6.05
2019-03-21T01:56:50.987Z,5.96
2019-03-21T01:59:21.877Z,5.91
2019-03-21T02:01:53.698Z,5.91
2019-03-21T02:04:25.704Z,5.82
2019-03-21T02:06:57.703Z,5.73
2019-03-21T02:09:29.943Z,5.80
2019-03-21T02:12:00.852Z,5.81
2019-03-21T02:14:31.689Z,5.81
2019-03-21T02:17:03.315Z,5.91
2019-03-21T02:19:34.157Z,5.80
2019-03-21T02:22:04.991Z,5.81
2019-03-21T02:24:36.029Z,5.80
2019-03-21T02:27:06.875Z,5.76
2019-03-21T02:29:37.952Z,5.71
2019-03-21T02:32:09.845Z,5.79
2019-03-21T02:34:40.777Z,5.84
2019-03-21T02:37:11.944Z,5.84
2019-03-21T02:39:42.899Z,5.85
2019-03-21T02:42:13.722Z,5.84
2019-03-21T02:44:44.779Z,5.83
2019-03-21T02:47:16.714Z,5.86
2019-03-21T02:49:47.491Z,5.84
2019-03-21T02:52:18.361Z,5.76
2019-03-21T02:54:49.046Z,5.75
2019-03-21T02:57:19.773Z,5.81
2019-03-21T02:59:50.718Z,5.82
2019-03-21T03:02:22.233Z,5.83
2019-03-21T03:04:53.611Z,5.80
2019-03-21T03:07:24.804Z,5.81
2019-03-21T03:09:56.904Z,5.80
2019-03-21T03:12:27.690Z,5.84
2019-03-21T03:14:58.537Z,5.79
2019-03-21T03:17:29.155Z,5.80
2019-03-21T03:19:59.876Z,5.81
2019-03-21T03:22:30.499Z,5.74
2019-03-21T03:25:01.582Z,5.72
2019-03-21T03:27:32.420Z,5.71
2019-03-21T03:30:03.981Z,5.56
2019-03-21T03:32:35.072Z,5.61
2019-03-21T03:35:06.223Z,5.63
2019-03-21T03:37:38.344Z,5.56
2019-03-21T03:40:11.432Z,5.49
2019-03-21T03:42:42.148Z,5.33
2019-03-21T03:45:19.200Z,5.29
2019-03-21T03:47:50.042Z,5.29
2019-03-21T03:50:20.880Z,5.33
2019-03-21T03:52:51.881Z,5.33
2019-03-21T03:55:25.768Z,5.21
2019-03-21T03:57:58.956Z,5.25
2019-03-21T04:00:30.274Z,5.03
2019-03-21T04:03:02.072Z,5.03
2019-03-21T04:05:34.359Z,5.10
2019-03-21T04:08:05.288Z,5.05
2019-03-21T04:10:39.257Z,4.97
2019-03-21T04:13:10.336Z,4.31
2019-03-21T04:15:52.383Z,4.96
2019-03-21T04:18:13.885Z,4.99
2019-03-21T04:20:46.286Z,5.00
2019-03-21T04:23:17.792Z,5.05
2019-03-21T04:26:01.247Z,4.22
2019-03-21T04:28:32.163Z,4.89
2019-03-21T04:31:02.955Z,4.90
2019-03-21T04:33:34.354Z,4.89
2019-03-21T04:36:05.650Z,4.86
2019-03-21T04:38:37.611Z,4.87
2019-03-21T04:41:08.541Z,4.93
2019-03-21T04:43:39.332Z,4.92
2019-03-21T04:46:12.121Z,4.92
2019-03-21T04:48:42.949Z,5.00
2019-03-21T04:51:13.793Z,4.92
2019-03-21T04:53:44.872Z,4.99
2019-03-21T04:56:16.975Z,5.04
2019-03-21T04:58:47.616Z,5.09
2019-03-21T05:01:19.585Z,5.00
2019-03-21T05:03:50.225Z,5.06
2019-03-21T05:06:21.444Z,5.03
2019-03-21T05:08:52.238Z,5.03
2019-03-21T05:11:24.859Z,5.02
2019-03-21T05:14:03.641Z,5.00
2019-03-21T05:16:34.645Z,5.03
2019-03-21T05:19:05.878Z,5.01
2019-03-21T05:21:36.880Z,5.05
2019-03-21T05:24:07.647Z,4.99
2019-03-21T05:26:38.736Z,5.06
2019-03-21T05:29:09.543Z,5.09
2019-03-21T05:31:40.251Z,5.14
2019-03-21T05:34:12.537Z,5.21
2019-03-21T05:36:43.259Z,5.27
2019-03-21T05:39:14.229Z,5.32
2019-03-21T05:41:45.378Z,5.36
2019-03-21T05:44:24.062Z,5.39
2019-03-21T05:46:55.084Z,5.41
2019-03-21T05:49:26.829Z,5.37
2019-03-21T05:51:58.167Z,5.37
2019-03-21T05:54:29.290Z,5.27
2019-03-21T05:57:00.504Z,5.32
2019-03-21T05:59:32.327Z,4.59
2019-03-21T06:02:03.240Z,5.31
2019-03-21T06:04:35.294Z,5.43
2019-03-21T06:07:20.234Z,5.49
2019-03-21T06:09:52.348Z,4.82
2019-03-21T06:12:23.415Z,5.60
2019-03-21T06:14:58.633Z,5.69
2019-03-21T06:17:30.251Z,5.72
2019-03-21T06:20:45.574Z,5.79
2019-03-21T06:23:50.015Z,5.84
2019-03-21T06:26:50.450Z,5.88
2019-03-21T06:29:22.361Z,5.90
2019-03-21T06:31:54.761Z,5.94
2019-03-21T06:34:25.569Z,5.28
2019-03-21T06:36:56.740Z,5.99
2019-03-21T06:39:27.554Z,6.09
2019-03-21T06:41:58.352Z,6.16
2019-03-21T06:44:30.366Z,6.19
2019-03-21T06:47:01.245Z,5.50
2019-03-21T06:49:33.291Z,6.19
2019-03-21T06:52:05.216Z,6.24
2019-03-21T06:54:37.536Z,6.32
2019-03-21T06:57:10.983Z,6.40
2019-03-21T06:59:42.138Z,6.50
2019-03-21T07:02:14.151Z,6.54
2019-03-21T07:04:44.994Z,6.60
2019-03-21T07:07:17.542Z,6.68
2019-03-21T07:09:48.590Z,6.78
2019-03-21T07:12:19.282Z,6.89
2019-03-21T07:14:52.474Z,6.90
2019-03-21T07:17:23.717Z,6.96
2019-03-21T07:19:54.572Z,7.24
2019-03-21T07:22:25.324Z,7.24
2019-03-21T07:24:57.960Z,7.44
2019-03-21T07:27:28.897Z,7.59
2019-03-21T07:30:00.494Z,7.84
2019-03-21T07:32:33.606Z,7.84
2019-03-21T07:35:03.847Z,8.28
2019-03-21T07:37:36.640Z,8.32
2019-03-21T07:40:10.999Z,8.32
2019-03-21T07:42:43.964Z,8.33
2019-03-21T07:45:18.296Z,8.44
2019-03-21T07:47:51.792Z,8.56
2019-03-21T07:50:22.939Z,8.83
2019-03-21T07:52:53.986Z,9.09
2019-03-21T07:55:25.288Z,9.27
2019-03-21T07:57:59.340Z,9.42
2019-03-21T08:00:31.283Z,8.95
2019-03-21T08:03:02.560Z,9.06
2019-03-21T08:05:40.355Z,9.75
2019-03-21T08:08:08.562Z,9.89
2019-03-21T08:10:39.556Z,10.06
2019-03-21T08:13:13.755Z,10.18
2019-03-21T08:15:44.466Z,10.15
2019-03-21T08:18:15.489Z,10.23
2019-03-21T08:20:56.182Z,10.42
2019-03-21T08:23:22.669Z,10.54
2019-03-21T08:25:54.191Z,10.62
2019-03-21T08:28:24.885Z,10.68
2019-03-21T08:31:32.682Z,10.79
2019-03-21T08:34:04.311Z,10.89
2019-03-21T08:36:35.849Z,11.03
2019-03-21T08:39:09.859Z,11.14
2019-03-21T08:41:41.206Z,11.23
2019-03-21T08:44:12.639Z,11.38
2019-03-21T08:46:43.997Z,11.55
2019-03-21T08:49:15.465Z,11.64
2019-03-21T08:51:46.249Z,11.80
2019-03-21T08:54:17.172Z,11.96
2019-03-21T08:56:48.124Z,12.02
2019-03-21T08:59:21.250Z,12.18
2019-03-21T09:01:52.282Z,11.64
2019-03-21T09:04:25.102Z,12.34
2019-03-21T09:06:56.123Z,12.40
2019-03-21T09:09:27.612Z,11.79
2019-03-21T09:11:58.479Z,12.37
2019-03-21T09:14:29.527Z,12.47
2019-03-21T09:17:00.799Z,12.03
2019-03-21T09:19:31.725Z,12.78
2019-03-21T09:22:03.957Z,12.89
2019-03-21T09:24:35.257Z,12.95
2019-03-21T09:27:06.832Z,12.96
2019-03-21T09:29:37.851Z,12.45
2019-03-21T09:32:09.336Z,13.14
2019-03-21T09:34:42.587Z,13.15
2019-03-21T09:37:14.237Z,13.17
2019-03-21T09:39:45.366Z,13.21
2019-03-21T09:42:17.646Z,13.42
2019-03-21T09:44:49.116Z,13.51
2019-03-21T09:47:20.058Z,13.55
2019-03-21T09:49:50.937Z,13.62
2019-03-21T09:52:22.184Z,13.63
2019-03-21T09:54:57.168Z,13.67
2019-03-21T09:57:28.082Z,13.75
2019-03-21T09:59:59.736Z,13.73
2019-03-21T10:02:34.626Z,13.88
2019-03-21T10:05:06.918Z,13.93
2019-03-21T10:07:37.949Z,13.96
2019-03-21T10:10:09.840Z,14.06
2019-03-21T10:12:43.441Z,13.98
2019-03-21T10:15:15.624Z,14.07
2019-03-21T10:17:48.423Z,14.24
2019-03-21T10:20:19.250Z,13.72
2019-03-21T10:22:51.107Z,14.31
2019-03-21T10:25:32.287Z,13.71
2019-03-21T10:28:03.633Z,14.39
2019-03-21T10:30:41.094Z,14.48
2019-03-21T10:33:14.431Z,14.62
2019-03-21T10:35:46.519Z,14.58
2019-03-21T10:38:18.470Z,14.67
2019-03-21T10:40:49.544Z,14.65
2019-03-21T10:43:20.927Z,14.64
2019-03-21T10:45:52.129Z,14.69
2019-03-21T10:48:24.631Z,14.80
2019-03-21T10:50:56.313Z,14.89
2019-03-21T10:53:27.874Z,14.99
2019-03-21T10:55:58.896Z,15.12
2019-03-21T10:58:30.014Z,15.03
2019-03-21T11:01:01.644Z,15.03
2019-03-21T11:03:33.755Z,15.00
2019-03-21T11:06:04.635Z,15.13
2019-03-21T11:08:35.544Z,15.10
2019-03-21T11:11:08.254Z,15.18
2019-03-21T11:13:40.404Z,14.70
2019-03-21T11:16:11.720Z,15.36
2019-03-21T11:18:42.833Z,15.38
2019-03-21T11:21:15.332Z,15.46
2019-03-21T11:23:46.405Z,15.61
2019-03-21T11:26:18.547Z,15.17
2019-03-21T11:28:49.263Z,15.24
2019-03-21T11:31:20.607Z,15.89
2019-03-21T11:33:52.035Z,16.01
2019-03-21T11:36:24.250Z,15.89
2019-03-21T11:38:55.704Z,15.95
2019-03-21T11:41:26.677Z,16.08
2019-03-21T11:43:57.822Z,15.86
2019-03-21T11:46:28.933Z,15.96
2019-03-21T11:49:00.007Z,15.97
2019-03-21T11:51:37.616Z,15.96
2019-03-21T11:54:09.672Z,16.07
2019-03-21T11:56:40.980Z,16.17
2019-03-21T11:59:15.563Z,16.25
2019-03-21T12:01:47.739Z,15.71
2019-03-21T12:04:18.856Z,16.39
2019-03-21T12:06:52.746Z,16.51
2019-03-21T12:09:23.732Z,16.64
2019-03-21T12:11:54.560Z,16.66
2019-03-21T12:14:25.569Z,16.56
2019-03-21T12:16:56.850Z,16.70
2019-03-21T12:19:27.676Z,16.69
2019-03-21T12:21:58.367Z,16.81
2019-03-21T12:24:29.188Z,16.94
2019-03-21T12:26:59.807Z,17.14
2019-03-21T12:29:30.630Z,17.18
2019-03-21T12:32:01.848Z,17.25
2019-03-21T12:34:32.602Z,17.47
2019-03-21T12:37:03.249Z,17.63
2019-03-21T12:39:34.092Z,17.67
2019-03-21T12:42:04.966Z,17.76
2019-03-21T12:44:35.698Z,17.88
2019-03-21T12:47:06.519Z,17.85
2019-03-21T12:49:37.352Z,18.00
2019-03-21T12:52:08.453Z,17.90
2019-03-21T12:54:39.306Z,17.79
2019-03-21T12:57:10.088Z,17.83
2019-03-21T12:59:41.060Z,17.67
2019-03-21T13:02:12.457Z,17.83
2019-03-21T13:04:43.262Z,18.01
2019-03-21T13:07:14.413Z,17.97
2019-03-21T13:09:45.471Z,18.07
2019-03-21T13:12:16.699Z,18.21
2019-03-21T13:14:47.531Z,18.38
2019-03-21T13:17:18.250Z,17.86
2019-03-21T13:19:49.266Z,18.18
2019-03-21T13:22:20.288Z,18.32
2019-03-21T13:24:53.011Z,18.40
2019-03-21T13:27:23.853Z,18.49
2019-03-21T13:29:54.625Z,18.57
2019-03-21T13:32:25.801Z,18.67
2019-03-21T13:34:59.857Z,18.65
2019-03-21T13:37:32.373Z,18.28
2019-03-21T13:40:03.579Z,18.26
2019-03-21T13:42:35.580Z,18.36
2019-03-21T13:45:06.699Z,18.50
2019-03-21T13:47:37.935Z,18.64
2019-03-21T13:50:09.194Z,18.62
2019-03-21T13:52:40.549Z,18.80
2019-03-21T13:55:11.863Z,18.75
2019-03-21T13:57:42.767Z,19.00
2019-03-21T14:00:15.912Z,18.97
2019-03-21T14:02:46.828Z,19.16
2019-03-21T14:05:18.230Z,19.08
2019-03-21T14:07:49.176Z,18.79
2019-03-21T14:10:20.094Z,18.41
2019-03-21T14:12:51.269Z,19.22
2019-03-21T14:15:27.696Z,19.39
2019-03-21T14:18:00.279Z,19.59
2019-03-21T14:20:31.168Z,19.47
2019-03-21T14:23:02.221Z,19.61
2019-03-21T14:25:33.627Z,19.66
2019-03-21T14:28:04.667Z,19.70
2019-03-21T14:30:35.652Z,19.70
2019-03-21T14:33:10.845Z,19.72
2019-03-21T14:35:41.739Z,19.79
2019-03-21T14:38:14.572Z,19.84
2019-03-21T14:40:45.898Z,19.91
2019-03-21T14:43:16.903Z,19.93
2019-03-21T14:45:47.738Z,19.94
2019-03-21T14:48:18.586Z,19.99
2019-03-21T14:50:50.575Z,20.08
2019-03-21T14:53:28.927Z,20.08
2019-03-21T14:55:55.582Z,20.12
2019-03-21T14:58:26.977Z,20.13
2019-03-21T15:00:57.919Z,20.01
2019-03-21T15:03:28.824Z,19.92
2019-03-21T15:06:00.169Z,19.97
2019-03-21T15:08:31.040Z,20.05
2019-03-21T15:11:01.962Z,20.13
2019-03-21T15:13:33.223Z,20.11
2019-03-21T15:16:04.478Z,20.12
2019-03-21T15:18:36.668Z,19.00
2019-03-21T15:21:07.940Z,20.01
2019-03-21T15:23:40.847Z,19.92
2019-03-21T15:26:11.479Z,19.89
2019-03-21T15:28:42.240Z,19.90
2019-03-21T15:31:13.624Z,19.79
2019-03-21T15:33:44.390Z,19.62
2019-03-21T15:36:15.288Z,19.61
2019-03-21T15:38:46.593Z,19.58
2019-03-21T15:41:17.672Z,19.55
2019-03-21T15:43:48.833Z,19.53
2019-03-21T15:46:20.199Z,19.49
2019-03-21T15:48:51.271Z,19.29
2019-03-21T15:51:23.734Z,19.16
2019-03-21T15:53:57.294Z,19.09
2019-03-21T15:56:28.090Z,18.95
2019-03-21T15:58:58.886Z,18.84
2019-03-21T16:01:30.045Z,18.67
2019-03-21T16:04:00.961Z,18.55
2019-03-21T16:06:32.596Z,18.65
2019-03-21T16:09:03.916Z,18.56
2019-03-21T16:11:35.945Z,18.48
2019-03-21T16:14:07.230Z,18.37
2019-03-21T16:16:38.334Z,18.27
2019-03-21T16:19:09.597Z,18.14
2019-03-21T16:21:41.418Z,17.99
2019-03-21T16:24:15.644Z,17.89
2019-03-21T16:26:46.731Z,17.81
2019-03-21T16:29:18.261Z,17.68
2019-03-21T16:31:49.752Z,17.61
2019-03-21T16:34:21.169Z,17.52
2019-03-21T16:36:54.474Z,17.64
2019-03-21T16:39:27.821Z,17.62
2019-03-21T16:41:58.764Z,17.54
2019-03-21T16:44:29.579Z,17.39
2019-03-21T16:47:01.432Z,17.29
2019-03-21T16:49:32.218Z,17.08
2019-03-21T16:52:03.109Z,16.96
2019-03-21T16:54:34.150Z,16.83
2019-03-21T16:57:06.044Z,16.72
2019-03-21T16:59:37.619Z,16.67
2019-03-21T17:02:09.137Z,16.58
2019-03-21T17:04:40.772Z,16.43
2019-03-21T17:07:11.936Z,16.34
2019-03-21T17:09:42.908Z,16.20
2019-03-21T17:12:13.894Z,16.11
2019-03-21T17:14:56.169Z,16.03
2019-03-21T17:17:27.281Z,15.93
2019-03-21T17:19:58.229Z,15.83
2019-03-21T17:22:30.197Z,15.73
2019-03-21T17:25:06.201Z,15.63
2019-03-21T17:27:39.281Z,15.54
2019-03-21T17:30:11.128Z,15.42
2019-03-21T17:32:42.004Z,15.30
2019-03-21T17:35:13.399Z,15.18
2019-03-21T17:37:46.047Z,15.08
2019-03-21T17:40:20.120Z,14.95
2019-03-21T17:42:51.617Z,14.83
2019-03-21T17:45:24.078Z,14.73
2019-03-21T17:47:59.288Z,14.61
2019-03-21T17:50:30.858Z,14.51
2019-03-21T17:53:02.547Z,14.39
2019-03-21T17:55:33.519Z,14.26
2019-03-21T17:58:05.758Z,14.15
2019-03-21T18:00:38.194Z,14.07
2019-03-21T18:03:10.115Z,13.97
2019-03-21T18:05:43.894Z,13.85
2019-03-21T18:08:16.538Z,13.76
2019-03-21T18:10:49.368Z,13.66
2019-03-21T18:13:27.596Z,13.57
2019-03-21T18:16:08.290Z,13.48
2019-03-21T18:18:44.529Z,13.39
2019-03-21T18:21:18.054Z,13.33
2019-03-21T18:23:50.168Z,12.56
2019-03-21T18:26:21.840Z,13.16
2019-03-21T18:28:54.060Z,13.12
2019-03-21T18:31:26.111Z,13.07
2019-03-21T18:33:58.352Z,13.01
2019-03-21T18:36:29.200Z,12.26
2019-03-21T18:39:00.162Z,12.94
2019-03-21T18:41:31.365Z,12.87
2019-03-21T18:44:03.316Z,12.23
2019-03-21T18:46:37.992Z,12.79
2019-03-21T18:49:08.755Z,11.62
2019-03-21T18:51:41.445Z,12.72
2019-03-21T18:54:14.185Z,12.67
2019-03-21T18:56:45.291Z,12.61
2019-03-21T18:59:21.905Z,12.56
2019-03-21T19:01:58.509Z,12.48
2019-03-21T19:04:26.252Z,12.47
2019-03-21T19:06:58.561Z,12.45
2019-03-21T19:09:29.995Z,12.42
2019-03-21T19:12:08.179Z,12.40
2019-03-21T19:14:39.380Z,11.73
2019-03-21T19:17:10.734Z,12.31
2019-03-21T19:19:41.535Z,12.26
2019-03-21T19:22:14.600Z,12.23
2019-03-21T19:24:45.970Z,12.18
2019-03-21T19:27:17.101Z,12.13
2019-03-21T19:29:48.133Z,12.07
2019-03-21T19:32:19.042Z,12.01
2019-03-21T19:34:49.982Z,11.97
2019-03-21T19:37:21.814Z,11.92
2019-03-21T19:39:52.657Z,11.86
2019-03-21T19:42:24.912Z,11.82
2019-03-21T19:44:56.042Z,11.77
2019-03-21T19:47:30.210Z,11.73
2019-03-21T19:50:00.576Z,11.68
2019-03-21T19:52:32.542Z,11.69
2019-03-21T19:55:04.105Z,11.69
2019-03-21T19:57:36.534Z,11.64
2019-03-21T20:00:09.758Z,11.61
2019-03-21T20:02:40.703Z,11.57
2019-03-21T20:05:11.826Z,11.54
2019-03-21T20:07:42.715Z,11.52
2019-03-21T20:10:14.833Z,11.50
2019-03-21T20:12:45.786Z,11.45
2019-03-21T20:15:17.748Z,11.42
2019-03-21T20:17:48.712Z,11.39
2019-03-21T20:20:19.597Z,11.42
2019-03-21T20:22:50.660Z,11.42
2019-03-21T20:25:22.751Z,11.43
2019-03-21T20:27:53.615Z,11.40
2019-03-21T20:30:24.606Z,11.39
2019-03-21T20:32:55.424Z,11.38
2019-03-21T20:35:26.936Z,11.37
2019-03-21T20:37:58.959Z,11.31
2019-03-21T20:40:31.305Z,11.29
2019-03-21T20:43:02.276Z,11.26
2019-03-21T20:45:33.258Z,11.22
2019-03-21T20:48:04.281Z,11.23
2019-03-21T20:50:35.603Z,11.20
2019-03-21T20:53:06.533Z,11.16
2019-03-21T20:55:38.788Z,11.14
2019-03-21T20:58:14.101Z,11.13
2019-03-21T21:00:45.167Z,11.11
2019-03-21T21:03:16.421Z,11.05
2019-03-21T21:05:47.324Z,11.03
2019-03-21T21:08:18.217Z,11.01
2019-03-21T21:10:49.162Z,10.98
2019-03-21T21:13:20.035Z,10.99
2019-03-21T21:15:51.650Z,10.89
2019-03-21T21:18:24.006Z,10.85
2019-03-21T21:20:55.241Z,10.85
2019-03-21T21:23:25.985Z,10.81
2019-03-21T21:26:05.416Z,10.78
2019-03-21T21:28:31.960Z,10.72
2019-03-21T21:31:02.899Z,10.01
2019-03-21T21:33:35.033Z,10.65
2019-03-21T21:36:05.983Z,10.65
2019-03-21T21:38:37.852Z,10.61
2019-03-21T21:41:09.010Z,10.60
2019-03-21T21:43:40.969Z,10.58
2019-03-21T21:46:13.211Z,10.55
2019-03-21T21:48:44.494Z,10.53
2019-03-21T21:51:16.662Z,10.48
2019-03-21T21:53:47.379Z,10.40
2019-03-21T21:56:18.592Z,10.31
2019-03-21T21:58:49.301Z,10.28
2019-03-21T22:01:20.282Z,10.28
2019-03-21T22:04:03.876Z,10.24
2019-03-21T22:06:25.704Z,10.23
2019-03-21T22:08:56.441Z,10.13
2019-03-21T22:11:28.994Z,10.12
2019-03-21T22:14:00.139Z,9.69
2019-03-21T22:16:31.063Z,10.07
2019-03-21T22:19:01.855Z,10.08
2019-03-21T22:21:34.177Z,10.05
2019-03-21T22:24:05.267Z,10.04
2019-03-21T22:26:36.157Z,10.04
2019-03-21T22:29:07.005Z,10.02
2019-03-21T22:31:38.216Z,10.01
2019-03-21T22:34:08.986Z,10.00
2019-03-21T22:36:48.848Z,9.96
2019-03-21T22:39:13.556Z,9.94
2019-03-21T22:41:44.447Z,9.93
2019-03-21T22:44:15.256Z,9.93
2019-03-21T22:46:46.048Z,9.89
2019-03-21T22:49:17.241Z,9.87
2019-03-21T22:51:48.404Z,9.83
2019-03-21T22:54:19.292Z,9.78
2019-03-21T22:56:50.031Z,9.71
2019-03-21T22:59:20.848Z,9.67
2019-03-21T23:01:52.476Z,9.65
2019-03-21T23:04:23.963Z,9.65
2019-03-21T23:06:55.165Z,9.60
2019-03-21T23:09:26.347Z,9.58
2019-03-21T23:11:58.240Z,9.53
2019-03-21T23:14:29.448Z,9.50
2019-03-21T23:17:00.795Z,9.43
2019-03-21T23:19:33.411Z,9.39
2019-03-21T23:22:04.554Z,9.37
2019-03-21T23:24:35.727Z,9.36
2019-03-21T23:27:07.259Z,9.33
2019-03-21T23:29:38.400Z,9.30
2019-03-21T23:32:09.817Z,9.26
2019-03-21T23:34:40.969Z,9.24
2019-03-21T23:37:12.162Z,9.20
2019-03-21T23:39:43.211Z,9.18
2019-03-21T23:42:15.348Z,9.17
2019-03-21T23:44:46.730Z,9.16
2019-03-21T23:47:17.740Z,9.14
2019-03-21T23:49:49.086Z,9.11
2019-03-21T23:52:20.185Z,9.05
2019-03-21T23:54:51.225Z,8.95
2019-03-21T23:57:22.313Z,8.95
2019-03-21T23:59:53.427Z,8.95
